sensor_id;sensor_type;location;lat;lon;timestamp;temperature;humidity
27492;DHT22;14927;51.210;6.838;2022-10-16T00:01:08;18.90;66.50
27492;DHT22;14927;51.210;6.838;2022-10-16T00:03:56;18.90;66.40
27492;DHT22;14927;51.210;6.838;2022-10-16T00:06:41;18.80;66.20
27492;DHT22;14927;51.210;6.838;2022-10-16T00:09:26;18.80;66.30
27492;DHT22;14927;51.210;6.838;2022-10-16T00:12:10;18.80;66.20
27492;DHT22;14927;51.210;6.838;2022-10-16T00:14:55;18.90;66.40
27492;DHT22;14927;51.210;6.838;2022-10-16T00:17:39;18.80;66.40
27492;DHT22;14927;51.210;6.838;2022-10-16T00:20:24;18.80;66.40
27492;DHT22;14927;51.210;6.838;2022-10-16T00:23:08;18.80;66.40
27492;DHT22;14927;51.210;6.838;2022-10-16T00:25:59;18.80;66.40
27492;DHT22;14927;51.210;6.838;2022-10-16T00:28:49;18.80;66.50
27492;DHT22;14927;51.210;6.838;2022-10-16T00:31:34;18.80;66.50
27492;DHT22;14927;51.210;6.838;2022-10-16T00:34:18;18.80;66.50
27492;DHT22;14927;51.210;6.838;2022-10-16T00:37:03;18.80;66.50
27492;DHT22;14927;51.210;6.838;2022-10-16T00:39:48;18.70;66.60
27492;DHT22;14927;51.210;6.838;2022-10-16T00:42:33;18.70;66.60
27492;DHT22;14927;51.210;6.838;2022-10-16T00:45:18;18.70;66.60
27492;DHT22;14927;51.210;6.838;2022-10-16T00:48:02;18.70;66.60
27492;DHT22;14927;51.210;6.838;2022-10-16T00:50:47;18.70;66.70
27492;DHT22;14927;51.210;6.838;2022-10-16T00:53:32;18.60;66.70
27492;DHT22;14927;51.210;6.838;2022-10-16T00:56:17;18.70;66.70
27492;DHT22;14927;51.210;6.838;2022-10-16T00:59:04;18.70;66.80
27492;DHT22;14927;51.210;6.838;2022-10-16T01:01:52;18.70;66.80
27492;DHT22;14927;51.210;6.838;2022-10-16T01:04:44;18.60;66.80
27492;DHT22;14927;51.210;6.838;2022-10-16T01:07:40;18.60;66.70
27492;DHT22;14927;51.210;6.838;2022-10-16T01:10:39;18.60;66.80
27492;DHT22;14927;51.210;6.838;2022-10-16T01:13:37;18.60;66.80
27492;DHT22;14927;51.210;6.838;2022-10-16T01:16:34;18.60;66.80
27492;DHT22;14927;51.210;6.838;2022-10-16T01:25:45;18.60;66.80
27492;DHT22;14927;51.210;6.838;2022-10-16T01:28:56;18.60;66.80
27492;DHT22;14927;51.210;6.838;2022-10-16T01:31:50;18.50;66.60
27492;DHT22;14927;51.210;6.838;2022-10-16T01:35:02;18.60;66.70
27492;DHT22;14927;51.210;6.838;2022-10-16T01:38:06;18.50;66.80
27492;DHT22;14927;51.210;6.838;2022-10-16T01:41:00;18.50;66.80
27492;DHT22;14927;51.210;6.838;2022-10-16T01:43:57;18.70;67.10
27492;DHT22;14927;51.210;6.838;2022-10-16T01:46:48;18.50;66.90
27492;DHT22;14927;51.210;6.838;2022-10-16T01:49:36;18.50;67.00
27492;DHT22;14927;51.210;6.838;2022-10-16T01:52:25;18.50;67.10
27492;DHT22;14927;51.210;6.838;2022-10-16T01:55:17;18.50;67.30
27492;DHT22;14927;51.210;6.838;2022-10-16T01:58:07;18.50;67.40
27492;DHT22;14927;51.210;6.838;2022-10-16T02:00:58;18.50;67.40
27492;DHT22;14927;51.210;6.838;2022-10-16T02:03:44;18.50;67.50
27492;DHT22;14927;51.210;6.838;2022-10-16T02:06:29;18.50;68.30
27492;DHT22;14927;51.210;6.838;2022-10-16T02:09:14;18.50;67.50
27492;DHT22;14927;51.210;6.838;2022-10-16T02:12:06;18.50;68.30
27492;DHT22;14927;51.210;6.838;2022-10-16T02:14:54;18.50;67.70
27492;DHT22;14927;51.210;6.838;2022-10-16T02:17:39;18.50;67.70
27492;DHT22;14927;51.210;6.838;2022-10-16T02:20:27;18.50;67.80
27492;DHT22;14927;51.210;6.838;2022-10-16T02:23:16;18.50;67.80
27492;DHT22;14927;51.210;6.838;2022-10-16T02:26:09;18.50;67.80
27492;DHT22;14927;51.210;6.838;2022-10-16T02:29:01;18.50;67.80
27492;DHT22;14927;51.210;6.838;2022-10-16T02:32:02;18.50;67.90
27492;DHT22;14927;51.210;6.838;2022-10-16T02:34:49;18.50;67.90
27492;DHT22;14927;51.210;6.838;2022-10-16T02:37:36;18.50;67.80
27492;DHT22;14927;51.210;6.838;2022-10-16T02:40:21;18.50;67.80
27492;DHT22;14927;51.210;6.838;2022-10-16T02:43:06;18.50;67.80
27492;DHT22;14927;51.210;6.838;2022-10-16T02:45:51;18.50;67.80
27492;DHT22;14927;51.210;6.838;2022-10-16T02:48:36;18.50;68.50
27492;DHT22;14927;51.210;6.838;2022-10-16T02:51:21;18.50;68.50
27492;DHT22;14927;51.210;6.838;2022-10-16T02:54:06;18.50;67.70
27492;DHT22;14927;51.210;6.838;2022-10-16T02:56:50;18.50;67.80
27492;DHT22;14927;51.210;6.838;2022-10-16T02:59:35;18.50;67.70
27492;DHT22;14927;51.210;6.838;2022-10-16T03:02:20;18.50;67.60
27492;DHT22;14927;51.210;6.838;2022-10-16T03:05:05;18.50;67.50
27492;DHT22;14927;51.210;6.838;2022-10-16T03:07:50;18.50;67.40
27492;DHT22;14927;51.210;6.838;2022-10-16T03:10:36;18.50;67.30
27492;DHT22;14927;51.210;6.838;2022-10-16T03:13:21;18.50;67.20
27492;DHT22;14927;51.210;6.838;2022-10-16T03:16:06;18.50;67.10
27492;DHT22;14927;51.210;6.838;2022-10-16T03:18:50;18.50;66.90
27492;DHT22;14927;51.210;6.838;2022-10-16T03:21:35;18.40;66.80
27492;DHT22;14927;51.210;6.838;2022-10-16T03:24:20;18.40;66.80
27492;DHT22;14927;51.210;6.838;2022-10-16T03:27:04;18.40;66.80
27492;DHT22;14927;51.210;6.838;2022-10-16T03:29:49;18.50;66.80
27492;DHT22;14927;51.210;6.838;2022-10-16T03:32:33;18.40;66.70
27492;DHT22;14927;51.210;6.838;2022-10-16T03:35:18;18.40;66.70
27492;DHT22;14927;51.210;6.838;2022-10-16T03:38:03;18.50;66.70
27492;DHT22;14927;51.210;6.838;2022-10-16T03:40:47;18.40;66.60
27492;DHT22;14927;51.210;6.838;2022-10-16T03:43:33;18.40;66.50
27492;DHT22;14927;51.210;6.838;2022-10-16T03:46:18;18.40;66.30
27492;DHT22;14927;51.210;6.838;2022-10-16T03:49:02;18.50;66.30
27492;DHT22;14927;51.210;6.838;2022-10-16T03:51:47;18.40;66.10
27492;DHT22;14927;51.210;6.838;2022-10-16T03:54:32;18.40;65.90
27492;DHT22;14927;51.210;6.838;2022-10-16T03:57:16;18.30;65.80
27492;DHT22;14927;51.210;6.838;2022-10-16T04:00:02;18.30;65.70
27492;DHT22;14927;51.210;6.838;2022-10-16T04:02:48;18.40;65.70
27492;DHT22;14927;51.210;6.838;2022-10-16T04:05:33;18.40;65.60
27492;DHT22;14927;51.210;6.838;2022-10-16T04:08:18;18.30;65.40
27492;DHT22;14927;51.210;6.838;2022-10-16T04:11:03;18.30;65.30
27492;DHT22;14927;51.210;6.838;2022-10-16T04:13:48;18.30;65.20
27492;DHT22;14927;51.210;6.838;2022-10-16T04:16:32;18.30;65.30
27492;DHT22;14927;51.210;6.838;2022-10-16T04:19:17;18.30;65.20
27492;DHT22;14927;51.210;6.838;2022-10-16T04:22:02;18.30;65.20
27492;DHT22;14927;51.210;6.838;2022-10-16T04:24:47;18.30;65.10
27492;DHT22;14927;51.210;6.838;2022-10-16T04:27:32;18.30;65.10
27492;DHT22;14927;51.210;6.838;2022-10-16T04:30:16;18.30;65.00
27492;DHT22;14927;51.210;6.838;2022-10-16T04:33:01;18.30;65.10
27492;DHT22;14927;51.210;6.838;2022-10-16T04:35:45;18.30;65.10
27492;DHT22;14927;51.210;6.838;2022-10-16T04:38:30;18.20;65.10
27492;DHT22;14927;51.210;6.838;2022-10-16T04:41:15;18.30;65.10
27492;DHT22;14927;51.210;6.838;2022-10-16T04:44:00;18.20;65.00
27492;DHT22;14927;51.210;6.838;2022-10-16T04:46:45;18.20;65.10
27492;DHT22;14927;51.210;6.838;2022-10-16T04:49:29;18.20;65.10
27492;DHT22;14927;51.210;6.838;2022-10-16T04:52:14;18.20;65.10
27492;DHT22;14927;51.210;6.838;2022-10-16T04:54:59;18.20;65.20
27492;DHT22;14927;51.210;6.838;2022-10-16T04:57:46;18.20;65.40
27492;DHT22;14927;51.210;6.838;2022-10-16T05:00:31;18.20;65.30
27492;DHT22;14927;51.210;6.838;2022-10-16T05:03:15;18.20;65.40
27492;DHT22;14927;51.210;6.838;2022-10-16T05:06:00;18.20;65.50
27492;DHT22;14927;51.210;6.838;2022-10-16T05:08:45;18.20;65.50
27492;DHT22;14927;51.210;6.838;2022-10-16T05:11:29;18.20;65.50
27492;DHT22;14927;51.210;6.838;2022-10-16T05:14:14;18.20;65.50
27492;DHT22;14927;51.210;6.838;2022-10-16T05:16:59;18.20;65.60
27492;DHT22;14927;51.210;6.838;2022-10-16T05:19:44;18.10;65.40
27492;DHT22;14927;51.210;6.838;2022-10-16T05:22:29;18.20;65.50
27492;DHT22;14927;51.210;6.838;2022-10-16T05:25:13;18.20;65.60
27492;DHT22;14927;51.210;6.838;2022-10-16T05:27:58;18.20;65.60
27492;DHT22;14927;51.210;6.838;2022-10-16T05:30:43;18.20;65.60
27492;DHT22;14927;51.210;6.838;2022-10-16T05:33:27;18.20;65.60
27492;DHT22;14927;51.210;6.838;2022-10-16T05:36:12;18.10;65.60
27492;DHT22;14927;51.210;6.838;2022-10-16T05:38:56;18.10;65.60
27492;DHT22;14927;51.210;6.838;2022-10-16T05:41:41;18.00;65.70
27492;DHT22;14927;51.210;6.838;2022-10-16T05:44:26;18.10;65.70
27492;DHT22;14927;51.210;6.838;2022-10-16T05:47:12;18.10;65.80
27492;DHT22;14927;51.210;6.838;2022-10-16T05:49:58;18.10;65.90
27492;DHT22;14927;51.210;6.838;2022-10-16T05:52:43;18.10;66.00
27492;DHT22;14927;51.210;6.838;2022-10-16T05:55:27;18.10;66.10
27492;DHT22;14927;51.210;6.838;2022-10-16T05:58:13;18.10;66.10
27492;DHT22;14927;51.210;6.838;2022-10-16T06:01:04;18.10;66.10
27492;DHT22;14927;51.210;6.838;2022-10-16T06:03:51;18.10;66.10
27492;DHT22;14927;51.210;6.838;2022-10-16T06:06:37;18.10;66.10
27492;DHT22;14927;51.210;6.838;2022-10-16T06:09:21;18.10;66.20
27492;DHT22;14927;51.210;6.838;2022-10-16T06:12:06;18.10;66.30
27492;DHT22;14927;51.210;6.838;2022-10-16T06:14:51;18.10;66.30
27492;DHT22;14927;51.210;6.838;2022-10-16T06:17:35;18.10;66.30
27492;DHT22;14927;51.210;6.838;2022-10-16T06:20:20;18.10;66.30
27492;DHT22;14927;51.210;6.838;2022-10-16T06:23:05;18.10;66.40
27492;DHT22;14927;51.210;6.838;2022-10-16T06:25:49;18.20;66.50
27492;DHT22;14927;51.210;6.838;2022-10-16T06:28:34;18.10;66.50
27492;DHT22;14927;51.210;6.838;2022-10-16T06:31:19;18.10;66.60
27492;DHT22;14927;51.210;6.838;2022-10-16T06:34:03;18.20;66.70
27492;DHT22;14927;51.210;6.838;2022-10-16T06:36:50;18.20;66.70
27492;DHT22;14927;51.210;6.838;2022-10-16T06:39:34;18.20;66.70
27492;DHT22;14927;51.210;6.838;2022-10-16T06:42:19;18.20;66.80
27492;DHT22;14927;51.210;6.838;2022-10-16T06:45:04;18.20;66.80
27492;DHT22;14927;51.210;6.838;2022-10-16T06:47:49;18.20;66.80
27492;DHT22;14927;51.210;6.838;2022-10-16T06:50:33;18.20;66.80
27492;DHT22;14927;51.210;6.838;2022-10-16T06:53:18;18.20;66.90
27492;DHT22;14927;51.210;6.838;2022-10-16T06:56:14;18.20;66.90
27492;DHT22;14927;51.210;6.838;2022-10-16T06:59:06;18.30;67.00
27492;DHT22;14927;51.210;6.838;2022-10-16T07:01:50;18.30;67.00
27492;DHT22;14927;51.210;6.838;2022-10-16T07:04:36;18.30;67.00
27492;DHT22;14927;51.210;6.838;2022-10-16T07:07:22;18.30;66.90
27492;DHT22;14927;51.210;6.838;2022-10-16T07:10:08;18.30;66.80
27492;DHT22;14927;51.210;6.838;2022-10-16T07:12:53;18.40;66.80
27492;DHT22;14927;51.210;6.838;2022-10-16T07:15:38;18.40;66.80
27492;DHT22;14927;51.210;6.838;2022-10-16T07:18:23;18.40;66.70
27492;DHT22;14927;51.210;6.838;2022-10-16T07:21:13;18.40;66.60
27492;DHT22;14927;51.210;6.838;2022-10-16T07:24:01;18.40;66.60
27492;DHT22;14927;51.210;6.838;2022-10-16T07:26:46;18.40;66.60
27492;DHT22;14927;51.210;6.838;2022-10-16T07:29:31;18.40;66.60
27492;DHT22;14927;51.210;6.838;2022-10-16T07:32:15;18.40;66.60
27492;DHT22;14927;51.210;6.838;2022-10-16T07:35:00;18.40;66.60
27492;DHT22;14927;51.210;6.838;2022-10-16T07:37:46;18.50;66.60
27492;DHT22;14927;51.210;6.838;2022-10-16T07:40:31;18.50;67.40
27492;DHT22;14927;51.210;6.838;2022-10-16T07:43:15;18.50;66.60
27492;DHT22;14927;51.210;6.838;2022-10-16T07:46:00;18.50;66.60
27492;DHT22;14927;51.210;6.838;2022-10-16T07:48:45;18.50;66.60
27492;DHT22;14927;51.210;6.838;2022-10-16T07:51:31;18.50;66.60
27492;DHT22;14927;51.210;6.838;2022-10-16T07:54:16;18.50;66.80
27492;DHT22;14927;51.210;6.838;2022-10-16T07:57:00;18.50;66.80
27492;DHT22;14927;51.210;6.838;2022-10-16T07:59:46;18.50;66.90
27492;DHT22;14927;51.210;6.838;2022-10-16T08:02:31;18.50;66.90
27492;DHT22;14927;51.210;6.838;2022-10-16T08:05:16;18.50;66.90
27492;DHT22;14927;51.210;6.838;2022-10-16T08:08:02;18.60;67.00
27492;DHT22;14927;51.210;6.838;2022-10-16T08:10:47;18.60;66.90
27492;DHT22;14927;51.210;6.838;2022-10-16T08:13:31;18.60;66.80
27492;DHT22;14927;51.210;6.838;2022-10-16T08:16:27;18.60;66.80
27492;DHT22;14927;51.210;6.838;2022-10-16T08:19:12;18.70;66.70
27492;DHT22;14927;51.210;6.838;2022-10-16T08:21:57;18.70;66.70
27492;DHT22;14927;51.210;6.838;2022-10-16T08:24:41;18.80;66.70
27492;DHT22;14927;51.210;6.838;2022-10-16T08:27:33;18.80;66.60
27492;DHT22;14927;51.210;6.838;2022-10-16T08:30:20;18.80;67.30
27492;DHT22;14927;51.210;6.838;2022-10-16T08:33:05;18.90;66.50
27492;DHT22;14927;51.210;6.838;2022-10-16T08:35:54;19.00;66.30
27492;DHT22;14927;51.210;6.838;2022-10-16T08:38:38;19.00;67.00
27492;DHT22;14927;51.210;6.838;2022-10-16T08:44:32;19.10;65.70
27492;DHT22;14927;51.210;6.838;2022-10-16T08:47:41;19.10;65.60
27492;DHT22;14927;51.210;6.838;2022-10-16T08:50:31;19.20;65.20
27492;DHT22;14927;51.210;6.838;2022-10-16T08:53:44;19.30;65.20
27492;DHT22;14927;51.210;6.838;2022-10-16T08:56:33;19.30;65.10
27492;DHT22;14927;51.210;6.838;2022-10-16T08:59:19;19.40;65.10
27492;DHT22;14927;51.210;6.838;2022-10-16T09:02:32;19.40;64.80
27492;DHT22;14927;51.210;6.838;2022-10-16T09:18:53;19.70;62.80
27492;DHT22;14927;51.210;6.838;2022-10-16T09:21:44;19.80;62.60
27492;DHT22;14927;51.210;6.838;2022-10-16T09:24:30;19.80;62.90
27492;DHT22;14927;51.210;6.838;2022-10-16T09:27:15;19.90;62.80
27492;DHT22;14927;51.210;6.838;2022-10-16T09:29:59;20.00;62.40
27492;DHT22;14927;51.210;6.838;2022-10-16T09:32:46;20.00;62.00
27492;DHT22;14927;51.210;6.838;2022-10-16T09:35:44;20.00;61.70
27492;DHT22;14927;51.210;6.838;2022-10-16T09:38:31;20.10;60.90
27492;DHT22;14927;51.210;6.838;2022-10-16T09:41:20;20.20;61.00
27492;DHT22;14927;51.210;6.838;2022-10-16T09:44:36;20.20;60.40
27492;DHT22;14927;51.210;6.838;2022-10-16T09:47:22;20.30;59.60
27492;DHT22;14927;51.210;6.838;2022-10-16T09:50:26;20.40;59.80
27492;DHT22;14927;51.210;6.838;2022-10-16T09:53:13;20.40;58.70
27492;DHT22;14927;51.210;6.838;2022-10-16T09:55:58;20.50;59.20
27492;DHT22;14927;51.210;6.838;2022-10-16T09:58:43;20.50;59.20
27492;DHT22;14927;51.210;6.838;2022-10-16T10:01:40;20.60;59.10
27492;DHT22;14927;51.210;6.838;2022-10-16T10:04:41;20.60;58.30
27492;DHT22;14927;51.210;6.838;2022-10-16T10:07:35;20.70;57.80
27492;DHT22;14927;51.210;6.838;2022-10-16T10:10:30;20.70;58.00
27492;DHT22;14927;51.210;6.838;2022-10-16T10:13:33;20.80;58.70
27492;DHT22;14927;51.210;6.838;2022-10-16T10:16:24;20.80;57.80
27492;DHT22;14927;51.210;6.838;2022-10-16T10:19:27;20.80;58.00
27492;DHT22;14927;51.210;6.838;2022-10-16T10:25:45;21.00;57.30
27492;DHT22;14927;51.210;6.838;2022-10-16T10:32:12;21.10;57.10
27492;DHT22;14927;51.210;6.838;2022-10-16T10:35:19;21.10;56.50
27492;DHT22;14927;51.210;6.838;2022-10-16T10:58:39;21.40;56.50
27492;DHT22;14927;51.210;6.838;2022-10-16T11:08:22;21.70;55.60
27492;DHT22;14927;51.210;6.838;2022-10-16T11:11:48;21.70;55.40
27492;DHT22;14927;51.210;6.838;2022-10-16T11:14:48;21.70;55.30
27492;DHT22;14927;51.210;6.838;2022-10-16T11:17:48;21.80;55.60
27492;DHT22;14927;51.210;6.838;2022-10-16T11:20:52;21.90;55.60
27492;DHT22;14927;51.210;6.838;2022-10-16T11:26:41;22.10;55.10
27492;DHT22;14927;51.210;6.838;2022-10-16T11:29:31;22.20;55.10
27492;DHT22;14927;51.210;6.838;2022-10-16T11:32:54;22.40;54.50
27492;DHT22;14927;51.210;6.838;2022-10-16T11:42:25;22.90;52.40
27492;DHT22;14927;51.210;6.838;2022-10-16T11:45:53;23.10;52.00
27492;DHT22;14927;51.210;6.838;2022-10-16T11:58:57;23.60;50.10
27492;DHT22;14927;51.210;6.838;2022-10-16T12:08:13;24.20;50.00
27492;DHT22;14927;51.210;6.838;2022-10-16T12:11:20;24.30;49.60
27492;DHT22;14927;51.210;6.838;2022-10-16T12:17:02;24.80;49.10
27492;DHT22;14927;51.210;6.838;2022-10-16T12:22:57;25.40;47.50
27492;DHT22;14927;51.210;6.838;2022-10-16T12:25:54;25.60;48.40
27492;DHT22;14927;51.210;6.838;2022-10-16T12:28:42;25.90;46.60
27492;DHT22;14927;51.210;6.838;2022-10-16T12:31:38;26.20;47.40
27492;DHT22;14927;51.210;6.838;2022-10-16T12:34:42;26.50;45.80
27492;DHT22;14927;51.210;6.838;2022-10-16T12:37:33;26.80;45.30
27492;DHT22;14927;51.210;6.838;2022-10-16T12:40:33;27.10;45.50
27492;DHT22;14927;51.210;6.838;2022-10-16T12:46:35;27.70;43.80
27492;DHT22;14927;51.210;6.838;2022-10-16T12:52:36;28.30;42.50
27492;DHT22;14927;51.210;6.838;2022-10-16T12:55:23;28.50;41.40
27492;DHT22;14927;51.210;6.838;2022-10-16T13:01:29;28.60;40.80
27492;DHT22;14927;51.210;6.838;2022-10-16T13:12:39;28.70;39.90
27492;DHT22;14927;51.210;6.838;2022-10-16T13:15:32;28.60;39.20
27492;DHT22;14927;51.210;6.838;2022-10-16T13:18:28;28.60;38.80
27492;DHT22;14927;51.210;6.838;2022-10-16T13:21:56;28.60;39.90
27492;DHT22;14927;51.210;6.838;2022-10-16T13:25:05;28.80;39.50
27492;DHT22;14927;51.210;6.838;2022-10-16T13:28:01;29.00;38.90
27492;DHT22;14927;51.210;6.838;2022-10-16T13:30:53;29.10;39.60
27492;DHT22;14927;51.210;6.838;2022-10-16T13:33:41;29.30;38.80
27492;DHT22;14927;51.210;6.838;2022-10-16T13:36:28;29.40;38.70
27492;DHT22;14927;51.210;6.838;2022-10-16T13:39:20;29.60;38.40
27492;DHT22;14927;51.210;6.838;2022-10-16T13:45:24;29.90;38.20
27492;DHT22;14927;51.210;6.838;2022-10-16T13:48:10;30.10;37.60
27492;DHT22;14927;51.210;6.838;2022-10-16T13:51:13;30.20;37.00
27492;DHT22;14927;51.210;6.838;2022-10-16T13:54:02;30.20;36.30
27492;DHT22;14927;51.210;6.838;2022-10-16T13:56:47;30.30;36.80
27492;DHT22;14927;51.210;6.838;2022-10-16T13:59:37;30.30;36.40
27492;DHT22;14927;51.210;6.838;2022-10-16T14:02:33;30.30;35.50
27492;DHT22;14927;51.210;6.838;2022-10-16T14:05:20;30.40;35.40
27492;DHT22;14927;51.210;6.838;2022-10-16T14:08:05;30.50;35.30
27492;DHT22;14927;51.210;6.838;2022-10-16T14:10:52;30.40;35.20
27492;DHT22;14927;51.210;6.838;2022-10-16T14:13:47;30.30;34.80
27492;DHT22;14927;51.210;6.838;2022-10-16T14:16:32;30.10;34.30
27492;DHT22;14927;51.210;6.838;2022-10-16T14:19:27;30.00;35.10
27492;DHT22;14927;51.210;6.838;2022-10-16T14:25:20;29.50;35.20
27492;DHT22;14927;51.210;6.838;2022-10-16T14:28:19;29.30;35.90
27492;DHT22;14927;51.210;6.838;2022-10-16T14:31:31;29.10;36.00
27492;DHT22;14927;51.210;6.838;2022-10-16T14:37:17;28.70;36.60
27492;DHT22;14927;51.210;6.838;2022-10-16T14:40:14;28.60;37.20
27492;DHT22;14927;51.210;6.838;2022-10-16T14:43:01;28.40;37.20
27492;DHT22;14927;51.210;6.838;2022-10-16T14:45:54;28.20;37.60
27492;DHT22;14927;51.210;6.838;2022-10-16T14:48:47;28.10;38.20
27492;DHT22;14927;51.210;6.838;2022-10-16T14:51:33;27.90;38.80
27492;DHT22;14927;51.210;6.838;2022-10-16T14:54:18;27.70;39.00
27492;DHT22;14927;51.210;6.838;2022-10-16T14:57:04;27.60;38.70
27492;DHT22;14927;51.210;6.838;2022-10-16T14:59:50;27.50;39.50
27492;DHT22;14927;51.210;6.838;2022-10-16T15:02:37;27.30;40.30
27492;DHT22;14927;51.210;6.838;2022-10-16T15:05:27;27.20;40.80
27492;DHT22;14927;51.210;6.838;2022-10-16T15:08:17;27.00;41.10
27492;DHT22;14927;51.210;6.838;2022-10-16T15:11:01;26.90;41.10
27492;DHT22;14927;51.210;6.838;2022-10-16T15:13:54;26.80;41.40
27492;DHT22;14927;51.210;6.838;2022-10-16T15:16:39;26.70;42.40
27492;DHT22;14927;51.210;6.838;2022-10-16T15:19:24;26.60;43.00
27492;DHT22;14927;51.210;6.838;2022-10-16T15:22:10;26.40;42.50
27492;DHT22;14927;51.210;6.838;2022-10-16T15:24:55;26.30;42.60
27492;DHT22;14927;51.210;6.838;2022-10-16T15:27:40;26.20;43.10
27492;DHT22;14927;51.210;6.838;2022-10-16T15:30:24;26.10;43.20
27492;DHT22;14927;51.210;6.838;2022-10-16T15:33:13;26.00;43.40
27492;DHT22;14927;51.210;6.838;2022-10-16T15:35:59;25.90;43.40
27492;DHT22;14927;51.210;6.838;2022-10-16T15:38:44;25.80;43.70
27492;DHT22;14927;51.210;6.838;2022-10-16T15:41:29;25.80;44.00
27492;DHT22;14927;51.210;6.838;2022-10-16T15:44:14;25.70;44.00
27492;DHT22;14927;51.210;6.838;2022-10-16T15:46:59;25.60;44.40
27492;DHT22;14927;51.210;6.838;2022-10-16T15:49:45;25.50;44.80
27492;DHT22;14927;51.210;6.838;2022-10-16T15:52:30;25.50;45.10
27492;DHT22;14927;51.210;6.838;2022-10-16T15:55:16;25.40;45.30
27492;DHT22;14927;51.210;6.838;2022-10-16T15:58:01;25.30;45.30
27492;DHT22;14927;51.210;6.838;2022-10-16T16:00:54;25.20;45.30
27492;DHT22;14927;51.210;6.838;2022-10-16T16:03:40;25.10;45.70
27492;DHT22;14927;51.210;6.838;2022-10-16T16:06:27;25.10;45.70
27492;DHT22;14927;51.210;6.838;2022-10-16T16:09:12;25.00;45.90
27492;DHT22;14927;51.210;6.838;2022-10-16T16:11:57;24.90;46.00
27492;DHT22;14927;51.210;6.838;2022-10-16T16:14:44;24.90;46.20
27492;DHT22;14927;51.210;6.838;2022-10-16T16:17:31;24.80;47.00
27492;DHT22;14927;51.210;6.838;2022-10-16T16:20:17;24.70;46.50
27492;DHT22;14927;51.210;6.838;2022-10-16T16:23:01;24.70;46.80
27492;DHT22;14927;51.210;6.838;2022-10-16T16:29:03;24.50;47.20
27492;DHT22;14927;51.210;6.838;2022-10-16T16:31:48;24.50;47.20
27492;DHT22;14927;51.210;6.838;2022-10-16T16:34:41;24.40;47.40
27492;DHT22;14927;51.210;6.838;2022-10-16T16:37:25;24.40;47.60
27492;DHT22;14927;51.210;6.838;2022-10-16T16:40:10;24.40;48.00
27492;DHT22;14927;51.210;6.838;2022-10-16T16:42:55;24.20;48.20
27492;DHT22;14927;51.210;6.838;2022-10-16T16:45:40;24.20;48.40
27492;DHT22;14927;51.210;6.838;2022-10-16T16:48:25;24.10;48.50
27492;DHT22;14927;51.210;6.838;2022-10-16T16:51:12;24.10;48.70
27492;DHT22;14927;51.210;6.838;2022-10-16T16:54:04;24.00;49.10
27492;DHT22;14927;51.210;6.838;2022-10-16T16:56:49;24.00;49.20
27492;DHT22;14927;51.210;6.838;2022-10-16T16:59:34;23.90;49.40
27492;DHT22;14927;51.210;6.838;2022-10-16T17:02:18;23.90;49.70
27492;DHT22;14927;51.210;6.838;2022-10-16T17:05:03;23.80;49.90
27492;DHT22;14927;51.210;6.838;2022-10-16T17:11:23;23.70;50.70
27492;DHT22;14927;51.210;6.838;2022-10-16T17:14:13;23.60;50.60
27492;DHT22;14927;51.210;6.838;2022-10-16T17:17:35;23.50;51.60
27492;DHT22;14927;51.210;6.838;2022-10-16T17:20:20;23.50;51.50
27492;DHT22;14927;51.210;6.838;2022-10-16T17:23:06;23.40;51.20
27492;DHT22;14927;51.210;6.838;2022-10-16T17:25:51;23.40;51.60
27492;DHT22;14927;51.210;6.838;2022-10-16T17:28:36;23.30;51.90
27492;DHT22;14927;51.210;6.838;2022-10-16T17:31:23;23.30;52.10
27492;DHT22;14927;51.210;6.838;2022-10-16T17:34:09;23.30;52.40
27492;DHT22;14927;51.210;6.838;2022-10-16T17:36:55;23.20;52.60
27492;DHT22;14927;51.210;6.838;2022-10-16T17:39:40;23.20;52.80
27492;DHT22;14927;51.210;6.838;2022-10-16T17:42:25;23.10;52.90
27492;DHT22;14927;51.210;6.838;2022-10-16T17:45:10;23.10;53.20
27492;DHT22;14927;51.210;6.838;2022-10-16T17:47:54;23.00;53.40
27492;DHT22;14927;51.210;6.838;2022-10-16T17:50:41;23.00;53.70
27492;DHT22;14927;51.210;6.838;2022-10-16T17:53:26;23.00;53.90
27492;DHT22;14927;51.210;6.838;2022-10-16T17:56:13;23.00;54.10
27492;DHT22;14927;51.210;6.838;2022-10-16T17:58:59;22.90;54.30
27492;DHT22;14927;51.210;6.838;2022-10-16T18:01:44;22.90;54.40
27492;DHT22;14927;51.210;6.838;2022-10-16T18:04:35;22.80;54.60
27492;DHT22;14927;51.210;6.838;2022-10-16T18:07:21;22.80;55.10
27492;DHT22;14927;51.210;6.838;2022-10-16T18:10:06;22.80;55.00
27492;DHT22;14927;51.210;6.838;2022-10-16T18:12:52;22.80;55.30
27492;DHT22;14927;51.210;6.838;2022-10-16T18:15:37;22.70;55.50
27492;DHT22;14927;51.210;6.838;2022-10-16T18:18:21;22.70;55.70
27492;DHT22;14927;51.210;6.838;2022-10-16T18:21:07;22.70;55.90
27492;DHT22;14927;51.210;6.838;2022-10-16T18:23:54;22.70;56.10
27492;DHT22;14927;51.210;6.838;2022-10-16T18:26:40;22.70;56.20
27492;DHT22;14927;51.210;6.838;2022-10-16T18:29:26;22.60;56.40
27492;DHT22;14927;51.210;6.838;2022-10-16T18:32:10;22.60;56.50
27492;DHT22;14927;51.210;6.838;2022-10-16T18:34:55;22.60;56.80
27492;DHT22;14927;51.210;6.838;2022-10-16T18:37:39;22.60;56.90
27492;DHT22;14927;51.210;6.838;2022-10-16T18:40:24;22.60;57.10
27492;DHT22;14927;51.210;6.838;2022-10-16T18:43:13;22.50;57.20
27492;DHT22;14927;51.210;6.838;2022-10-16T18:46:00;22.50;57.70
27492;DHT22;14927;51.210;6.838;2022-10-16T18:48:46;22.50;57.60
27492;DHT22;14927;51.210;6.838;2022-10-16T18:51:37;22.50;57.70
27492;DHT22;14927;51.210;6.838;2022-10-16T18:54:30;22.50;58.10
27492;DHT22;14927;51.210;6.838;2022-10-16T18:57:15;22.50;58.30
27492;DHT22;14927;51.210;6.838;2022-10-16T19:00:00;22.50;58.20
27492;DHT22;14927;51.210;6.838;2022-10-16T19:02:44;22.50;59.20
27492;DHT22;14927;51.210;6.838;2022-10-16T19:05:32;22.40;58.60
27492;DHT22;14927;51.210;6.838;2022-10-16T19:08:17;22.40;59.20
27492;DHT22;14927;51.210;6.838;2022-10-16T19:11:09;22.40;59.40
27492;DHT22;14927;51.210;6.838;2022-10-16T19:13:56;22.40;60.10
27492;DHT22;14927;51.210;6.838;2022-10-16T19:16:41;22.40;59.90
27492;DHT22;14927;51.210;6.838;2022-10-16T19:19:26;22.40;60.00
27492;DHT22;14927;51.210;6.838;2022-10-16T19:22:11;22.30;60.40
27492;DHT22;14927;51.210;6.838;2022-10-16T19:25:00;22.30;60.60
27492;DHT22;14927;51.210;6.838;2022-10-16T19:27:45;22.30;60.80
27492;DHT22;14927;51.210;6.838;2022-10-16T19:30:29;22.20;61.00
27492;DHT22;14927;51.210;6.838;2022-10-16T19:33:14;22.30;61.40
27492;DHT22;14927;51.210;6.838;2022-10-16T19:36:29;22.20;61.50
27492;DHT22;14927;51.210;6.838;2022-10-16T19:39:15;22.20;62.70
27492;DHT22;14927;51.210;6.838;2022-10-16T19:42:00;22.20;61.90
27492;DHT22;14927;51.210;6.838;2022-10-16T19:44:45;22.10;62.10
27492;DHT22;14927;51.210;6.838;2022-10-16T19:47:30;22.10;62.30